This is the latest recevied weather packets stored in our database for station/object LRCK. If no packets are shown the sender has not sent any weather packets the latest 10 day(s).
| Time | Temp. | Humidity | Pressure | Rain* | Wind** | Luminosity | Snow |
|---|---|---|---|---|---|---|---|
| 1777737798 | 10° C | 62% | 1021 hPa | - | - | - | - |
| 1777736903 | 10° C | 62% | 1021 hPa | - | - | - | - |
| 1777735998 | 10° C | 62% | 1021 hPa | - | - | - | - |
| 1777735097 | 8.89° C | 71% | 1021 hPa | - | - | - | - |
| 1777734197 | 8.89° C | 71% | 1021 hPa | - | - | - | - |
| 1777733297 | 7.78° C | 71% | 1022 hPa | - | - | - | - |
| 1777732397 | 7.78° C | 71% | 1022 hPa | - | - | - | - |
| 1777730598 | 10° C | 71% | 1022 hPa | - | - | - | - |
| 1777729697 | 12.22° C | 63% | 1022 hPa | - | - | - | - |
| 1777728797 | 12.22° C | 63% | 1022 hPa | - | - | - | - |
| 1777727897 | 10° C | 71% | 1022 hPa | - | - | - | - |
| 1777726998 | 10° C | 71% | 1022 hPa | - | - | - | - |
| 1777726098 | 8.89° C | 82% | 1022 hPa | - | - | - | - |
| 1777725197 | 8.89° C | 82% | 1022 hPa | - | - | - | - |
| 1777724297 | 7.78° C | 82% | 1022 hPa | - | - | - | - |
| 1777723405 | 7.78° C | 82% | 1022 hPa | - | - | - | - |
| 1777721597 | 7.22° C | 81% | 1023 hPa | - | - | - | - |
| 1777720697 | 12.22° C | 58% | 1022 hPa | - | - | - | - |
| 1777719797 | 12.22° C | 58% | 1022 hPa | - | - | - | - |
| 1777718897 | 11.11° C | 67% | 1022 hPa | - | - | - | - |
| 1777717998 | 11.11° C | 67% | 1022 hPa | - | - | - | - |
| 1777717094 | 10° C | 71% | 1022 hPa | - | - | - | - |
| 1777716197 | 10° C | 71% | 1022 hPa | - | - | - | - |
| 1777714474 | 7.78° C | 66% | 1023 hPa | - | - | - | - |
| 1777713497 | 11.11° C | 54% | 1022 hPa | - | - | - | - |
* Rain since midnight (hover to see other rain measurements)
** Current wind speed in m/s (hover to see current wind gust speed)